Time;durP1;ratioP1;P1;durP2;ratioP2;P2;SDS_P1;SDS_P2;PMS_P1;PMS_P2;Temp;Humidity;BMP_temperature;BMP_pressure;BME280_temperature;BME280_humidity;BME280_pressure;Samples;Min_cycle;Max_cycle;Signal;HPM_P1;HPM_P2
2022/06/16 00:00:35;;;;;;;10.48;3.67;;;19.40;66.30;;;;;;2095583;28;20021;-68
2022/06/16 00:01:36;;;;;;;6.55;3.35;;;19.40;66.20;;;;;;2096375;28;20063;-68
2022/06/16 00:02:44;;;;;;;6.22;3.60;;;19.40;66.20;;;;;;2095356;28;20077;-68
2022/06/16 00:03:45;;;;;;;5.18;3.67;;;19.40;66.70;;;;;;2097462;28;20012;-68
2022/06/16 00:04:46;;;;;;;5.80;3.67;;;19.40;66.50;;;;;;2096230;28;20050;-68
2022/06/16 00:05:48;;;;;;;5.57;3.63;;;19.40;66.70;;;;;;2093930;28;20099;-69
2022/06/16 00:06:49;;;;;;;6.10;3.85;;;19.40;67.00;;;;;;2095855;28;20020;-68
2022/06/16 00:07:50;;;;;;;5.53;3.28;;;19.40;67.00;;;;;;2093794;28;20473;-68
2022/06/16 00:08:50;;;;;;;4.30;3.15;;;19.40;66.80;;;;;;2097008;28;20028;-68
2022/06/16 00:09:51;;;;;;;6.00;3.42;;;19.40;66.60;;;;;;2097420;28;20032;-68
2022/06/16 00:12:24;;;;;;;4.82;3.50;;;19.30;66.70;;;;;;2062753;28;20060;-68
2022/06/16 00:13:28;;;;;;;5.15;3.45;;;19.30;66.60;;;;;;2085474;28;20024;-68
2022/06/16 00:14:29;;;;;;;6.00;3.95;;;19.30;66.90;;;;;;2096950;28;20077;-68
2022/06/16 00:15:31;;;;;;;6.75;4.28;;;19.30;66.90;;;;;;2094834;28;20502;-69
2022/06/16 00:16:31;;;;;;;5.05;3.40;;;19.20;67.00;;;;;;2096340;28;20067;-69
2022/06/16 00:17:32;;;;;;;6.43;3.50;;;19.20;67.00;;;;;;2096190;28;20036;-68
2022/06/16 00:18:33;;;;;;;5.65;3.70;;;19.20;67.20;;;;;;2098967;28;20651;-68
2022/06/16 00:19:33;;;;;;;4.35;3.40;;;19.20;66.90;;;;;;2110941;28;20026;-68
2022/06/16 00:20:34;;;;;;;4.55;3.28;;;19.20;67.50;;;;;;2111109;28;20031;-69
2022/06/16 00:21:35;;;;;;;5.60;3.30;;;19.20;67.40;;;;;;2098490;28;20150;-68
2022/06/16 00:22:36;;;;;;;6.07;3.50;;;19.20;67.70;;;;;;2096011;28;20082;-68
2022/06/16 00:23:38;;;;;;;4.75;3.63;;;19.20;67.80;;;;;;2095590;28;20508;-68
2022/06/16 00:24:38;;;;;;;6.80;3.13;;;19.10;67.60;;;;;;2097814;28;20028;-69
2022/06/16 00:25:39;;;;;;;8.68;3.53;;;19.10;67.60;;;;;;2095717;28;20052;-68
2022/06/16 00:26:40;;;;;;;7.72;2.90;;;19.10;67.60;;;;;;2094634;28;20012;-69
2022/06/16 00:27:41;;;;;;;5.18;3.33;;;19.10;67.50;;;;;;2093889;28;20034;-69
2022/06/16 00:28:42;;;;;;;7.05;3.55;;;19.10;68.10;;;;;;2096130;28;20016;-68
2022/06/16 00:29:42;;;;;;;5.10;3.13;;;19.00;67.80;;;;;;2096189;28;20052;-69
2022/06/16 00:30:43;;;;;;;5.47;3.10;;;19.00;67.80;;;;;;2096648;28;20027;-69
2022/06/16 00:31:44;;;;;;;5.25;3.40;;;19.00;68.20;;;;;;2097055;28;20028;-68
2022/06/16 00:32:45;;;;;;;5.63;2.90;;;19.00;67.80;;;;;;2098416;28;20476;-68
2022/06/16 00:33:46;;;;;;;5.15;3.60;;;19.00;67.50;;;;;;2097076;28;20047;-68
2022/06/16 00:34:46;;;;;;;4.22;3.08;;;19.00;67.50;;;;;;2096437;28;20470;-69
2022/06/16 00:35:47;;;;;;;7.45;3.90;;;19.00;67.40;;;;;;2094107;28;20033;-69
2022/06/16 00:36:48;;;;;;;5.75;3.50;;;19.00;67.50;;;;;;2095951;28;20392;-69
2022/06/16 00:37:48;;;;;;;5.47;3.38;;;19.00;67.50;;;;;;2094543;28;20745;-68
2022/06/16 00:38:49;;;;;;;6.60;3.35;;;19.00;67.50;;;;;;2095736;28;20483;-68
2022/06/16 00:39:50;;;;;;;3.72;3.22;;;19.00;67.50;;;;;;2099658;28;20074;-68
2022/06/16 00:40:51;;;;;;;8.27;3.50;;;18.90;67.60;;;;;;2094124;28;20020;-68
2022/06/16 00:41:52;;;;;;;5.60;3.50;;;18.90;68.40;;;;;;2095923;28;20143;-68
2022/06/16 00:42:53;;;;;;;6.75;3.60;;;18.90;67.50;;;;;;2097879;28;20020;-68
2022/06/16 00:43:59;;;;;;;4.53;3.38;;;18.90;67.50;;;;;;2097955;28;20039;-68
2022/06/16 00:44:59;;;;;;;5.93;3.33;;;18.90;67.90;;;;;;2096954;28;20522;-69
2022/06/16 00:46:03;;;;;;;3.85;3.20;;;18.90;68.20;;;;;;2095218;28;20021;-68
2022/06/16 00:47:04;;;;;;;6.82;3.22;;;18.90;67.00;;;;;;2095927;28;20020;-69
2022/06/16 00:48:04;;;;;;;5.25;3.42;;;18.90;66.80;;;;;;2098000;28;20016;-69
2022/06/16 00:49:12;;;;;;;7.47;3.72;;;18.80;67.00;;;;;;2094812;28;20024;-69
2022/06/16 00:50:12;;;;;;;5.30;3.33;;;18.80;67.10;;;;;;2095307;28;20400;-68
2022/06/16 00:51:47;;;;;;;4.88;2.97;;;18.80;66.90;;;;;;2097150;28;20054;-68
2022/06/16 00:52:48;;;;;;;6.95;3.67;;;18.70;67.50;;;;;;2095408;28;20024;-68
2022/06/16 00:53:49;;;;;;;4.80;3.30;;;18.70;67.20;;;;;;2097374;28;20021;-68
2022/06/16 00:55:04;;;;;;;6.38;3.30;;;18.70;67.20;;;;;;2097967;28;20082;-68
2022/06/16 00:56:07;;;;;;;6.68;3.28;;;18.70;67.30;;;;;;2093946;28;20032;-68
2022/06/16 00:57:14;;;;;;;8.55;3.15;;;18.70;67.40;;;;;;2097286;28;20020;-68
2022/06/16 00:58:16;;;;;;;5.60;3.30;;;18.70;67.10;;;;;;2109363;28;20031;-69
2022/06/16 00:59:18;;;;;;;6.78;3.33;;;18.70;67.20;;;;;;2110117;28;20114;-69
2022/06/16 01:00:34;;;;;;;3.65;2.88;;;18.70;68.00;;;;;;2095614;28;20050;-68
2022/06/16 01:01:38;;;;;;;5.88;3.00;;;18.70;67.20;;;;;;2096083;28;20811;-68
2022/06/16 01:02:38;;;;;;;5.70;3.33;;;18.60;66.70;;;;;;2095146;28;20455;-68
2022/06/16 01:04:59;;;;;;;7.05;3.30;;;18.70;66.70;;;;;;2097781;28;20037;-68
2022/06/16 01:05:59;;;;;;;4.93;3.20;;;18.60;66.70;;;;;;2094431;28;20104;-68
2022/06/16 01:07:04;;;;;;;5.18;3.58;;;18.60;66.80;;;;;;2096959;28;20122;-68
2022/06/16 01:08:07;;;;;;;9.48;3.42;;;18.60;66.70;;;;;;2094171;28;20446;-68
2022/06/16 01:09:15;;;;;;;4.30;3.03;;;18.60;66.80;;;;;;2095346;28;20035;-68
2022/06/16 01:10:17;;;;;;;6.03;2.97;;;18.60;67.10;;;;;;2096412;28;20050;-69
2022/06/16 01:13:41;;;;;;;6.05;2.67;;;18.50;67.60;;;;;;2098046;28;20024;-68
2022/06/16 01:14:56;;;;;;;5.90;2.90;;;18.50;67.90;;;;;;2095407;28;20035;-68
2022/06/16 01:16:09;;;;;;;4.38;3.20;;;18.40;67.80;;;;;;2093744;28;20029;-68
2022/06/16 01:17:31;;;;;;;4.63;3.00;;;18.40;68.00;;;;;;2095667;28;20030;-68
2022/06/16 01:18:56;;;;;;;6.03;3.28;;;18.40;67.70;;;;;;2094429;28;20051;-68
2022/06/16 01:20:00;;;;;;;4.82;3.45;;;18.40;67.50;;;;;;2095135;28;20049;-68
2022/06/16 01:21:11;;;;;;;7.07;3.00;;;18.40;67.40;;;;;;2096453;28;20013;-68
2022/06/16 01:22:21;;;;;;;6.03;3.45;;;18.40;67.10;;;;;;2095534;28;20013;-68
2022/06/16 01:23:43;;;;;;;4.43;2.78;;;18.40;67.40;;;;;;2097829;28;20062;-68
2022/06/16 01:24:58;;;;;;;4.38;2.88;;;18.40;66.80;;;;;;2094340;28;20151;-68
2022/06/16 01:26:28;;;;;;;4.93;3.15;;;18.40;67.10;;;;;;2095559;28;20542;-68
2022/06/16 01:27:38;;;;;;;;;;;18.40;67.80;;;;;;2096797;28;20047;-68
2022/06/16 01:28:53;;;;;;;5.80;2.95;;;18.20;68.20;;;;;;2096056;28;20415;-68
2022/06/16 01:30:13;;;;;;;10.23;3.47;;;18.30;68.00;;;;;;2093725;28;20527;-68
2022/06/16 01:31:33;;;;;;;4.90;2.90;;;18.30;68.40;;;;;;2094623;28;20114;-68
2022/06/16 01:32:51;;;;;;;2.97;2.60;;;18.20;68.70;;;;;;2095912;28;20024;-68
2022/06/16 01:34:12;;;;;;;5.45;2.70;;;18.20;68.20;;;;;;2097793;28;20020;-68
2022/06/16 01:35:18;;;;;;;4.68;2.95;;;18.20;68.60;;;;;;2095401;28;20678;-68
2022/06/16 01:36:29;;;;;;;4.32;2.70;;;18.20;68.00;;;;;;2092691;28;20029;-68
2022/06/16 01:38:12;;;;;;;6.75;3.10;;;18.20;68.20;;;;;;2098046;28;20017;-68
2022/06/16 01:39:35;;;;;;;3.30;2.92;;;18.20;68.80;;;;;;2096093;28;20103;-68
2022/06/16 01:41:07;;;;;;;3.80;2.80;;;18.20;68.30;;;;;;2095276;28;20025;-68
2022/06/16 01:42:18;;;;;;;5.43;2.70;;;18.10;68.20;;;;;;2096085;28;20543;-68
2022/06/16 01:43:43;;;;;;;3.78;2.70;;;18.10;68.10;;;;;;2094819;28;20024;-68
2022/06/16 01:45:01;;;;;;;8.07;2.70;;;18.10;68.10;;;;;;2095411;28;20048;-68
2022/06/16 01:46:04;;;;;;;4.70;2.92;;;18.10;68.10;;;;;;2094705;28;20016;-68
2022/06/16 01:47:14;;;;;;;4.00;2.55;;;18.10;68.00;;;;;;2096558;28;20082;-68
2022/06/16 01:48:17;;;;;;;7.03;3.83;;;18.10;67.60;;;;;;2095111;28;20020;-68
2022/06/16 01:49:36;;;;;;;4.18;2.70;;;18.10;67.40;;;;;;2094873;28;20131;-68
2022/06/16 01:50:56;;;;;;;7.03;3.55;;;18.10;68.20;;;;;;2095518;28;20075;-68
2022/06/16 01:52:01;;;;;;;5.20;2.80;;;18.10;67.80;;;;;;2094886;28;20039;-68
2022/06/16 01:53:09;;;;;;;8.30;3.05;;;18.10;67.80;;;;;;2102319;28;20028;-68
2022/06/16 01:54:21;;;;;;;5.63;3.30;;;18.10;67.90;;;;;;2102309;28;20107;-68
2022/06/16 01:55:30;;;;;;;5.47;3.03;;;18.10;67.80;;;;;;2093883;28;20028;-68
2022/06/16 01:56:44;;;;;;;5.10;2.97;;;18.10;67.90;;;;;;2097081;28;20389;-68
2022/06/16 01:58:14;;;;;;;3.60;2.63;;;18.10;67.60;;;;;;2096225;28;20032;-68
2022/06/16 01:59:20;;;;;;;8.30;3.13;;;18.00;68.60;;;;;;2096834;28;20039;-68
2022/06/16 02:00:24;;;;;;;5.57;2.63;;;18.00;67.90;;;;;;2094332;28;20028;-68
2022/06/16 02:01:29;;;;;;;6.30;2.83;;;18.00;67.80;;;;;;2095628;28;20020;-69
2022/06/16 02:02:34;;;;;;;3.95;2.90;;;18.00;67.50;;;;;;2095435;28;20020;-68
2022/06/16 02:03:43;;;;;;;6.07;3.03;;;18.10;67.50;;;;;;2096666;28;20041;-68
2022/06/16 02:05:05;;;;;;;6.43;3.13;;;18.10;67.40;;;;;;2095056;28;20024;-68
2022/06/16 02:06:14;;;;;;;4.22;2.95;;;18.10;68.00;;;;;;2095662;28;20086;-68
2022/06/16 02:07:23;;;;;;;4.22;2.50;;;18.00;67.70;;;;;;2097671;28;20028;-68
2022/06/16 02:08:28;;;;;;;4.47;2.80;;;18.10;67.90;;;;;;2096151;28;20016;-68
2022/06/16 02:09:36;;;;;;;6.43;3.40;;;18.00;67.70;;;;;;2095304;28;20103;-68
2022/06/16 02:10:42;;;;;;;5.50;2.88;;;18.00;68.40;;;;;;2096760;28;20029;-68
2022/06/16 02:11:44;;;;;;;4.63;3.10;;;18.00;68.60;;;;;;2094460;28;20119;-68
2022/06/16 02:12:56;;;;;;;9.40;2.97;;;18.00;68.90;;;;;;2096153;28;20029;-68
2022/06/16 02:14:13;;;;;;;4.18;2.90;;;18.00;68.70;;;;;;2094786;28;20530;-68
2022/06/16 02:15:26;;;;;;;5.00;2.85;;;18.00;69.00;;;;;;2092579;28;20124;-68
2022/06/16 02:16:29;;;;;;;5.45;3.05;;;18.00;68.80;;;;;;2096191;28;20021;-68
2022/06/16 02:17:30;;;;;;;4.30;3.30;;;17.90;68.40;;;;;;2096276;28;20788;-68
2022/06/16 02:18:37;;;;;;;6.78;2.83;;;18.00;69.20;;;;;;2094230;28;20381;-68
2022/06/16 02:19:39;;;;;;;4.63;2.83;;;18.00;68.60;;;;;;2097244;28;20387;-68
2022/06/16 02:20:58;;;;;;;5.80;2.88;;;18.00;68.70;;;;;;2094047;28;20017;-68
2022/06/16 02:22:01;;;;;;;5.80;2.85;;;18.00;68.70;;;;;;2095818;28;20063;-68
2022/06/16 02:23:03;;;;;;;5.93;3.20;;;18.00;68.50;;;;;;2096234;28;20106;-68
2022/06/16 02:24:06;;;;;;;6.95;3.28;;;18.00;68.40;;;;;;2097790;28;20039;-68
2022/06/16 02:25:07;;;;;;;5.78;3.00;;;18.00;68.70;;;;;;2095403;28;20074;-68
2022/06/16 02:26:08;;;;;;;4.95;3.08;;;18.00;69.00;;;;;;2096823;28;20060;-68
2022/06/16 02:27:09;;;;;;;3.92;3.00;;;18.00;68.80;;;;;;2097186;28;20017;-68
2022/06/16 02:28:12;;;;;;;5.07;3.10;;;18.00;68.70;;;;;;2095341;28;20025;-68
2022/06/16 02:29:19;;;;;;;6.18;3.08;;;18.00;69.00;;;;;;2095377;28;20508;-68
2022/06/16 02:30:19;;;;;;;5.47;2.92;;;18.00;68.90;;;;;;2094732;28;20488;-68
2022/06/16 02:31:45;;;;;;;6.63;2.92;;;18.00;68.70;;;;;;2095572;28;20423;-68
2022/06/16 02:32:55;;;;;;;3.53;2.65;;;17.90;69.80;;;;;;2096312;28;20031;-68
2022/06/16 02:34:04;;;;;;;3.67;2.95;;;18.00;69.00;;;;;;2097300;28;20016;-68
2022/06/16 02:35:14;;;;;;;3.88;2.75;;;17.90;69.30;;;;;;2096334;28;20602;-68
2022/06/16 02:36:53;;;;;;;9.63;3.28;;;17.90;69.40;;;;;;2094897;28;20054;-68
2022/06/16 02:37:54;;;;;;;3.30;2.95;;;17.80;69.30;;;;;;2097415;28;20107;-68
2022/06/16 02:39:38;;;;;;;5.80;3.25;;;17.80;69.00;;;;;;2095327;28;20503;-68
2022/06/16 02:41:14;;;;;;;3.63;2.88;;;17.80;68.90;;;;;;2081646;28;20040;-68
2022/06/16 02:42:33;;;;;;;7.18;2.63;;;17.80;68.80;;;;;;2083157;28;20117;-68
2022/06/16 02:44:04;;;;;;;2.65;2.15;;;17.80;68.80;;;;;;2093727;28;20032;-68
2022/06/16 02:45:05;;;;;;;3.92;2.60;;;17.80;69.00;;;;;;2094698;28;20012;-68
2022/06/16 02:46:24;;;;;;;4.03;2.33;;;17.70;68.50;;;;;;2095622;28;20028;-68
2022/06/16 02:47:48;;;;;;;5.13;2.80;;;17.80;68.20;;;;;;2097024;28;20019;-68
2022/06/16 02:49:19;;;;;;;3.45;2.17;;;17.80;68.10;;;;;;2096144;28;20017;-68
2022/06/16 02:50:38;;;;;;;3.65;2.55;;;17.70;68.60;;;;;;2104816;28;20031;-68
2022/06/16 02:52:05;;;;;;;5.88;3.10;;;17.70;69.60;;;;;;2107991;28;20076;-68
2022/06/16 02:53:18;;;;;;;4.88;2.70;;;17.70;69.00;;;;;;2095789;28;20027;-68
2022/06/16 02:54:44;;;;;;;4.50;2.90;;;17.70;69.00;;;;;;2095771;28;20020;-68
2022/06/16 02:55:48;;;;;;;3.35;2.40;;;17.70;68.90;;;;;;2096043;28;20035;-68
2022/06/16 02:56:58;;;;;;;2.60;2.25;;;17.70;68.70;;;;;;2095025;28;20016;-68
2022/06/16 02:58:01;;;;;;;4.32;2.35;;;17.70;68.60;;;;;;2098440;28;20091;-68
2022/06/16 02:59:28;;;;;;;4.57;2.80;;;17.70;69.00;;;;;;2094613;28;20041;-68
2022/06/16 03:00:38;;;;;;;5.75;2.85;;;17.70;69.30;;;;;;2095660;28;20016;-68
2022/06/16 03:01:39;;;;;;;4.22;2.30;;;17.70;68.90;;;;;;2095171;28;20100;-68
2022/06/16 03:02:41;;;;;;;4.95;3.13;;;17.70;69.00;;;;;;2098478;28;20032;-68
2022/06/16 03:03:41;;;;;;;4.07;3.05;;;17.70;68.90;;;;;;2096438;28;20021;-68
2022/06/16 03:04:44;;;;;;;4.95;2.75;;;17.70;69.00;;;;;;2112215;28;20016;-68
2022/06/16 03:05:45;;;;;;;4.00;2.97;;;17.70;68.50;;;;;;2110347;28;20119;-68
2022/06/16 03:06:47;;;;;;;4.07;2.40;;;17.70;68.90;;;;;;2097531;28;20105;-68
2022/06/16 03:07:47;;;;;;;5.85;2.63;;;17.70;69.10;;;;;;2097886;28;20051;-68
2022/06/16 03:08:48;;;;;;;5.05;2.70;;;17.70;68.70;;;;;;2097903;28;20052;-68
2022/06/16 03:09:49;;;;;;;3.00;2.70;;;17.70;69.30;;;;;;2096097;28;20491;-68
2022/06/16 03:10:52;;;;;;;4.65;2.88;;;17.70;69.30;;;;;;2097885;28;20374;-68
2022/06/16 03:11:53;;;;;;;4.32;2.35;;;17.70;69.50;;;;;;2096132;28;20412;-68
2022/06/16 03:12:53;;;;;;;3.95;2.83;;;17.70;69.40;;;;;;2098965;28;20017;-68
2022/06/16 03:13:54;;;;;;;3.85;2.45;;;17.70;69.70;;;;;;2095866;28;20840;-68
2022/06/16 03:14:55;;;;;;;5.03;2.70;;;17.70;69.10;;;;;;2099482;28;20016;-68
2022/06/16 03:15:57;;;;;;;4.55;2.60;;;17.70;69.30;;;;;;2095485;28;20091;-68
2022/06/16 03:16:58;;;;;;;5.85;3.08;;;17.70;68.90;;;;;;2096610;28;20078;-68
2022/06/16 03:17:59;;;;;;;5.75;2.75;;;17.70;68.90;;;;;;2097424;28;20048;-68
2022/06/16 03:18:59;;;;;;;2.90;2.50;;;17.70;68.90;;;;;;2096493;28;20078;-68
2022/06/16 03:20:00;;;;;;;3.45;2.75;;;17.70;69.70;;;;;;2096408;28;20270;-68
2022/06/16 03:21:00;;;;;;;4.15;2.63;;;17.60;68.80;;;;;;2097862;28;20369;-68
2022/06/16 03:22:03;;;;;;;3.30;2.40;;;17.60;68.70;;;;;;2096039;28;20031;-68
2022/06/16 03:23:03;;;;;;;4.88;3.13;;;17.60;68.90;;;;;;2097029;28;20027;-68
2022/06/16 03:24:04;;;;;;;3.10;2.50;;;17.60;69.00;;;;;;2097035;28;20410;-68
2022/06/16 03:25:05;;;;;;;4.38;2.60;;;17.60;68.40;;;;;;2096890;28;20512;-68
2022/06/16 03:26:06;;;;;;;3.75;2.65;;;17.60;68.20;;;;;;2095268;28;20028;-68
2022/06/16 03:27:07;;;;;;;4.80;2.92;;;17.60;68.50;;;;;;2098813;28;20511;-68
2022/06/16 03:28:09;;;;;;;5.60;3.45;;;17.60;68.40;;;;;;2096391;28;20025;-68
2022/06/16 03:29:09;;;;;;;4.43;2.60;;;17.60;68.40;;;;;;2097657;28;20024;-68
2022/06/16 03:30:11;;;;;;;3.53;2.70;;;17.60;68.20;;;;;;2095256;28;20024;-68
2022/06/16 03:31:11;;;;;;;3.60;2.58;;;17.60;68.10;;;;;;2096257;28;20016;-68
2022/06/16 03:32:12;;;;;;;3.47;2.85;;;17.60;67.90;;;;;;2097563;28;20052;-68
2022/06/16 03:33:13;;;;;;;6.20;2.67;;;17.50;68.30;;;;;;2094928;28;20073;-68
2022/06/16 03:34:13;;;;;;;4.43;2.90;;;17.50;67.80;;;;;;2096811;28;20716;-68
2022/06/16 03:35:14;;;;;;;5.45;2.88;;;17.50;68.10;;;;;;2097954;28;20036;-68
2022/06/16 03:36:15;;;;;;;3.88;3.00;;;17.50;68.10;;;;;;2096136;28;20036;-68
2022/06/16 03:37:15;;;;;;;3.58;2.53;;;17.50;68.50;;;;;;2098436;28;20036;-68
2022/06/16 03:39:18;;;;;;;4.50;2.92;;;17.40;68.30;;;;;;2097263;28;20116;-68
2022/06/16 03:40:20;;;;;;;3.75;2.53;;;17.40;68.50;;;;;;2096314;28;20036;-68
2022/06/16 03:41:21;;;;;;;4.28;2.97;;;17.40;68.10;;;;;;2094745;28;20021;-68
2022/06/16 03:42:21;;;;;;;5.15;2.92;;;17.40;68.50;;;;;;2095154;28;20518;-68
2022/06/16 03:43:22;;;;;;;5.72;2.65;;;17.40;68.60;;;;;;2096780;28;20069;-68
2022/06/16 03:44:23;;;;;;;3.55;2.40;;;17.40;69.10;;;;;;2096869;28;20095;-68
2022/06/16 03:45:23;;;;;;;4.68;3.10;;;17.40;68.70;;;;;;2097372;28;20031;-68
2022/06/16 03:46:25;;;;;;;3.60;2.72;;;17.40;69.00;;;;;;2096886;28;20016;-68
2022/06/16 03:47:25;;;;;;;5.28;2.70;;;17.40;69.40;;;;;;2097527;28;20020;-68
2022/06/16 03:48:26;;;;;;;4.22;2.80;;;17.40;69.80;;;;;;2097207;28;20113;-68
2022/06/16 03:49:26;;;;;;;4.95;2.75;;;17.40;69.50;;;;;;2097260;28;20027;-68
2022/06/16 03:50:27;;;;;;;3.58;2.80;;;17.40;69.60;;;;;;2097937;28;20047;-68
2022/06/16 03:51:28;;;;;;;4.47;2.70;;;17.40;69.80;;;;;;2097423;28;20043;-68
2022/06/16 03:52:28;;;;;;;5.38;2.60;;;17.40;70.00;;;;;;2097427;28;20024;-68
2022/06/16 03:53:29;;;;;;;3.40;2.70;;;17.40;70.10;;;;;;2096146;28;20059;-68
2022/06/16 03:54:29;;;;;;;4.85;2.45;;;17.40;69.80;;;;;;2098057;28;20099;-68
2022/06/16 03:55:31;;;;;;;3.63;2.63;;;17.40;70.10;;;;;;2094911;28;20603;-68
2022/06/16 03:56:31;;;;;;;3.38;2.60;;;17.40;69.70;;;;;;2096682;28;20451;-68
2022/06/16 03:57:32;;;;;;;4.53;2.53;;;17.40;69.10;;;;;;2095997;28;20032;-68
2022/06/16 03:58:34;;;;;;;4.57;2.67;;;17.40;69.20;;;;;;2097051;28;20094;-68
2022/06/16 03:59:35;;;;;;;4.53;2.55;;;17.40;68.90;;;;;;2098170;28;20017;-68
2022/06/16 04:00:35;;;;;;;4.00;2.50;;;17.40;69.10;;;;;;2096404;28;20495;-68
2022/06/16 04:01:36;;;;;;;7.22;3.47;;;17.40;69.10;;;;;;2096140;28;20024;-68
2022/06/16 04:02:36;;;;;;;5.40;2.92;;;17.40;69.80;;;;;;2097840;28;20020;-68
2022/06/16 04:04:56;;;;;;;5.93;2.80;;;17.50;69.60;;;;;;2095631;28;20036;-68
2022/06/16 04:05:57;;;;;;;3.72;2.20;;;17.50;69.10;;;;;;2097144;28;20303;-68
2022/06/16 04:06:57;;;;;;;4.90;2.55;;;17.60;69.20;;;;;;2097248;28;20491;-68
2022/06/16 04:07:58;;;;;;;5.20;2.85;;;17.60;69.30;;;;;;2095358;28;20028;-68
2022/06/16 04:08:59;;;;;;;3.13;2.50;;;17.70;68.40;;;;;;2098212;28;20058;-68
2022/06/16 04:09:59;;;;;;;6.65;2.65;;;17.90;68.60;;;;;;2096944;28;20448;-68
2022/06/16 04:11:26;;;;;;;3.75;2.33;;;18.00;67.80;;;;;;2096815;28;20138;-68
2022/06/16 04:12:20;;;;;;;4.22;2.25;;;18.10;66.90;;;;;;2095312;28;20040;-68
2022/06/16 04:13:21;;;;;;;4.15;2.53;;;18.30;66.10;;;;;;2095973;28;20036;-68
2022/06/16 04:14:22;;;;;;;5.40;2.38;;;18.40;65.20;;;;;;2097201;28;20029;-68
2022/06/16 04:15:23;;;;;;;3.78;2.03;;;18.50;64.50;;;;;;2097153;28;20021;-68
2022/06/16 04:16:23;;;;;;;5.20;2.40;;;18.40;64.20;;;;;;2093668;28;20029;-68
2022/06/16 04:17:25;;;;;;;3.15;2.22;;;18.40;63.80;;;;;;2096864;28;20107;-68
2022/06/16 04:18:25;;;;;;;3.95;2.00;;;18.30;63.90;;;;;;2096396;28;20498;-68
2022/06/16 04:19:26;;;;;;;4.82;2.40;;;18.30;64.30;;;;;;2094155;28;20050;-68
2022/06/16 04:20:27;;;;;;;3.65;2.08;;;18.30;64.70;;;;;;2096890;28;20020;-68
2022/06/16 04:21:28;;;;;;;3.58;2.33;;;18.30;64.70;;;;;;2098381;28;20032;-68
2022/06/16 04:22:29;;;;;;;3.42;2.70;;;18.40;65.00;;;;;;2094652;28;20025;-68
2022/06/16 04:23:29;;;;;;;6.00;2.75;;;18.50;65.20;;;;;;2095802;28;20036;-68
2022/06/16 04:24:33;;;;;;;4.93;2.67;;;18.70;65.10;;;;;;2092929;28;20024;-68
2022/06/16 04:25:33;;;;;;;3.90;2.20;;;18.90;64.40;;;;;;2094996;28;20506;-68
2022/06/16 04:26:37;;;;;;;4.30;2.42;;;19.00;63.80;;;;;;2095578;28;20401;-68
2022/06/16 04:27:37;;;;;;;3.42;2.08;;;19.10;63.60;;;;;;2096395;28;20452;-68
2022/06/16 04:28:38;;;;;;;4.22;2.40;;;19.10;63.00;;;;;;2098551;28;20032;-68
2022/06/16 04:29:38;;;;;;;4.72;2.50;;;19.20;62.60;;;;;;2096953;28;20369;-68
2022/06/16 04:30:39;;;;;;;2.97;2.28;;;19.10;62.10;;;;;;2096585;28;20043;-68
2022/06/16 04:31:40;;;;;;;4.60;2.33;;;19.10;62.40;;;;;;2099397;28;20028;-68
2022/06/16 04:32:40;;;;;;;5.03;2.25;;;19.10;62.50;;;;;;2094829;28;20233;-68
2022/06/16 04:33:41;;;;;;;3.97;2.65;;;19.10;62.30;;;;;;2096594;28;20021;-68
2022/06/16 04:34:43;;;;;;;3.30;2.10;;;19.00;62.30;;;;;;2096563;28;20020;-68
2022/06/16 04:35:44;;;;;;;2.83;2.00;;;19.00;62.40;;;;;;2096298;28;20420;-68
2022/06/16 04:36:45;;;;;;;3.08;2.10;;;19.00;62.60;;;;;;2095864;28;20055;-68
2022/06/16 04:37:45;;;;;;;3.78;2.30;;;19.00;62.50;;;;;;2095346;28;20032;-68
2022/06/16 04:38:48;;;;;;;3.38;1.98;;;19.00;62.90;;;;;;2096332;28;20056;-68
2022/06/16 04:39:49;;;;;;;3.13;2.00;;;19.10;63.30;;;;;;2097618;28;20020;-68
2022/06/16 04:40:49;;;;;;;5.05;2.10;;;19.10;63.40;;;;;;2096178;28;20035;-68
2022/06/16 04:41:50;;;;;;;4.88;2.10;;;19.10;63.10;;;;;;2095806;28;20027;-68
2022/06/16 04:42:50;;;;;;;3.30;1.88;;;19.20;63.00;;;;;;2096518;28;20490;-68
2022/06/16 04:43:51;;;;;;;3.90;2.10;;;19.20;63.40;;;;;;2095595;28;20020;-68
2022/06/16 04:44:52;;;;;;;4.43;2.03;;;19.30;63.20;;;;;;2095267;28;20040;-68
2022/06/16 04:45:52;;;;;;;3.75;1.90;;;19.30;63.10;;;;;;2094468;28;20036;-68
2022/06/16 04:46:53;;;;;;;3.78;1.98;;;19.40;62.40;;;;;;2097939;28;20050;-68
2022/06/16 04:47:54;;;;;;;4.88;2.40;;;19.40;62.10;;;;;;2096147;28;20107;-68
2022/06/16 04:48:54;;;;;;;4.03;1.88;;;19.50;61.90;;;;;;2095876;28;20025;-68
2022/06/16 04:49:55;;;;;;;5.00;1.90;;;19.50;61.50;;;;;;2096883;28;20032;-68
2022/06/16 04:50:55;;;;;;;3.50;2.25;;;19.60;61.20;;;;;;2094443;28;20047;-68
2022/06/16 04:51:56;;;;;;;5.95;2.20;;;19.60;61.10;;;;;;2094666;28;20843;-68
2022/06/16 04:52:57;;;;;;;6.00;2.05;;;19.60;61.10;;;;;;2094831;28;20047;-68
2022/06/16 04:53:57;;;;;;;2.58;1.73;;;19.60;60.80;;;;;;2096025;28;20107;-68
2022/06/16 04:54:58;;;;;;;3.20;1.75;;;19.70;61.00;;;;;;2095384;28;20029;-68
2022/06/16 04:56:00;;;;;;;5.15;2.60;;;19.70;60.60;;;;;;2096790;28;20127;-68
2022/06/16 04:57:03;;;;;;;4.30;2.25;;;19.70;60.30;;;;;;2095545;28;20028;-68
2022/06/16 04:58:05;;;;;;;3.60;2.15;;;19.80;60.40;;;;;;2095692;28;20028;-68
2022/06/16 04:59:06;;;;;;;3.42;2.20;;;19.80;60.00;;;;;;2095045;28;20476;-69
2022/06/16 05:00:08;;;;;;;2.90;2.05;;;19.80;59.70;;;;;;2095353;28;21438;-68
2022/06/16 05:01:09;;;;;;;2.95;1.83;;;19.90;59.70;;;;;;2096387;28;21477;-68
2022/06/16 05:02:09;;;;;;;3.55;2.03;;;19.90;59.70;;;;;;2095528;28;20426;-68
2022/06/16 05:03:10;;;;;;;2.88;1.67;;;19.90;59.40;;;;;;2095879;28;20102;-68
2022/06/16 05:04:11;;;;;;;2.75;1.90;;;19.90;59.60;;;;;;2099331;28;20027;-68
2022/06/16 05:05:12;;;;;;;2.63;1.95;;;19.90;59.80;;;;;;2095050;28;20021;-69
2022/06/16 05:06:12;;;;;;;3.92;1.92;;;20.00;59.60;;;;;;2094858;28;20032;-68
2022/06/16 05:07:13;;;;;;;4.10;2.40;;;20.00;59.10;;;;;;2097484;28;20086;-68
2022/06/16 05:08:15;;;;;;;3.15;1.95;;;20.00;59.10;;;;;;2094305;28;20033;-68
2022/06/16 05:09:16;;;;;;;3.78;2.33;;;20.00;59.20;;;;;;2096983;28;20032;-69
2022/06/16 05:10:17;;;;;;;3.28;2.05;;;20.00;59.00;;;;;;2094230;28;20096;-68
2022/06/16 05:11:19;;;;;;;3.13;1.92;;;20.00;59.10;;;;;;2093860;28;20466;-68
2022/06/16 05:12:19;;;;;;;2.47;1.80;;;20.00;59.20;;;;;;2097027;28;20032;-68
2022/06/16 05:13:20;;;;;;;4.05;1.98;;;20.00;59.40;;;;;;2095376;28;20111;-68
2022/06/16 05:14:21;;;;;;;4.13;2.03;;;20.10;59.70;;;;;;2095622;28;20024;-69
2022/06/16 05:15:22;;;;;;;3.42;1.83;;;20.20;59.40;;;;;;2097637;28;20085;-69
2022/06/16 05:16:22;;;;;;;2.78;2.10;;;20.20;59.00;;;;;;2095303;28;20190;-68
2022/06/16 05:17:23;;;;;;;4.03;2.15;;;20.20;58.90;;;;;;2097288;28;20025;-69
2022/06/16 05:18:23;;;;;;;6.80;2.20;;;20.20;58.80;;;;;;2096106;28;20110;-68
2022/06/16 05:19:24;;;;;;;5.75;2.05;;;20.20;58.30;;;;;;2095429;28;20024;-68
2022/06/16 05:20:25;;;;;;;5.20;2.42;;;20.30;58.90;;;;;;2095422;28;20027;-69
2022/06/16 05:21:25;;;;;;;1.92;1.70;;;20.30;58.10;;;;;;2095666;28;20012;-68
2022/06/16 05:22:26;;;;;;;4.78;2.20;;;20.30;57.90;;;;;;2094752;28;20075;-69
2022/06/16 05:23:27;;;;;;;2.88;1.85;;;20.30;58.10;;;;;;2095863;28;20507;-68
2022/06/16 05:24:27;;;;;;;4.00;2.00;;;20.30;58.10;;;;;;2093948;28;20025;-68
2022/06/16 05:25:28;;;;;;;4.03;2.00;;;20.30;58.00;;;;;;2094895;28;20027;-69
2022/06/16 05:26:29;;;;;;;5.07;2.10;;;20.30;58.00;;;;;;2095711;28;20052;-68
2022/06/16 05:27:29;;;;;;;5.03;2.38;;;20.30;58.10;;;;;;2097522;28;20020;-69
2022/06/16 05:28:31;;;;;;;5.20;2.35;;;20.30;57.80;;;;;;2095659;28;20149;-68
2022/06/16 05:29:31;;;;;;;6.25;2.47;;;20.30;57.80;;;;;;2096422;28;20034;-69
2022/06/16 05:30:33;;;;;;;3.47;1.90;;;20.30;58.20;;;;;;2098107;28;20035;-68
2022/06/16 05:31:36;;;;;;;3.83;1.88;;;20.30;58.20;;;;;;2094724;28;20051;-68
2022/06/16 05:32:37;;;;;;;3.10;2.00;;;20.40;58.30;;;;;;2094098;28;20029;-69
2022/06/16 05:33:38;;;;;;;5.05;2.03;;;20.40;58.30;;;;;;2096170;28;20135;-69
2022/06/16 05:34:38;;;;;;;4.80;2.40;;;20.40;58.30;;;;;;2094892;28;20028;-69
2022/06/16 05:35:39;;;;;;;5.05;2.15;;;20.40;58.10;;;;;;2094463;28;20027;-68
2022/06/16 05:36:43;;;;;;;4.47;2.38;;;20.40;58.00;;;;;;2095611;28;20028;-69
2022/06/16 05:37:43;;;;;;;4.78;2.50;;;20.40;58.00;;;;;;2097184;28;20031;-69
2022/06/16 05:38:44;;;;;;;5.22;2.33;;;20.40;58.90;;;;;;2095627;28;20522;-69
2022/06/16 05:39:48;;;;;;;3.83;2.22;;;20.40;57.90;;;;;;2093892;28;20025;-68
2022/06/16 05:40:58;;;;;;;4.45;2.38;;;20.40;58.10;;;;;;2094566;28;20078;-68
2022/06/16 05:41:59;;;;;;;3.75;2.03;;;20.50;58.70;;;;;;2098799;28;20718;-68
2022/06/16 05:42:59;;;;;;;4.07;2.60;;;20.50;58.50;;;;;;2094984;28;20380;-69
2022/06/16 05:44:00;;;;;;;4.13;2.25;;;20.60;58.20;;;;;;2094794;28;20817;-69
2022/06/16 05:45:01;;;;;;;3.20;2.00;;;20.60;58.40;;;;;;2098148;28;20024;-69
2022/06/16 05:46:02;;;;;;;5.28;2.80;;;20.60;58.10;;;;;;2095203;28;20078;-68